Time;durP1;ratioP1;P1;durP2;ratioP2;P2;SDS_P1;SDS_P2;PMS_P1;PMS_P2;Temp;Humidity;BMP_temperature;BMP_pressure;BME280_temperature;BME280_humidity;BME280_pressure;Samples;Min_cycle;Max_cycle;Signal;HPM_P1;HPM_P2
2022/06/23 00:02:25;;;;;;;11.68;6.82;;;18.90;99.90;;;;;;6242784;23;20079;-88
2022/06/23 00:04:56;;;;;;;8.32;6.35;;;18.90;99.90;;;;;;6240970;23;20012;-88
2022/06/23 00:07:25;;;;;;;7.75;6.95;;;18.80;99.90;;;;;;6242337;22;20001;-87
2022/06/23 00:09:55;;;;;;;9.75;6.93;;;18.80;99.90;;;;;;6240703;23;20033;-88
2022/06/23 00:12:38;;;;;;;10.32;7.40;;;18.80;99.90;;;;;;6240624;23;20083;-88
2022/06/23 00:15:04;;;;;;;16.90;8.57;;;18.80;99.90;;;;;;6241135;23;20016;-88
2022/06/23 00:17:31;;;;;;;10.50;7.78;;;18.80;99.90;;;;;;6240580;23;20000;-88
2022/06/23 00:20:01;;;;;;;10.98;8.55;;;18.90;99.90;;;;;;6242185;22;20495;-88
2022/06/23 00:22:30;;;;;;;12.05;8.77;;;18.90;99.90;;;;;;6240490;23;20004;-88
2022/06/23 00:24:58;;;;;;;11.85;7.80;;;18.90;99.90;;;;;;6242359;22;20000;-88
2022/06/23 00:27:31;;;;;;;13.63;9.10;;;18.90;99.90;;;;;;6240685;23;20459;-88
2022/06/23 00:30:01;;;;;;;10.23;8.00;;;18.90;99.90;;;;;;6242125;23;20032;-88
2022/06/23 00:32:29;;;;;;;11.73;8.35;;;18.90;99.90;;;;;;6240710;23;20004;-88
2022/06/23 00:35:05;;;;;;;11.88;9.07;;;18.90;99.90;;;;;;6240380;23;20096;-89
2022/06/23 00:37:32;;;;;;;11.88;9.73;;;18.90;99.90;;;;;;6241008;23;20091;-88
2022/06/23 00:40:04;;;;;;;11.30;7.93;;;18.90;99.90;;;;;;6242152;23;20388;-88
2022/06/23 00:42:34;;;;;;;8.90;7.80;;;18.90;99.90;;;;;;6240527;23;20004;-88
2022/06/23 00:45:11;;;;;;;10.20;9.13;;;18.90;99.90;;;;;;6240452;23;20008;-88
2022/06/23 00:47:45;;;;;;;11.10;9.02;;;18.90;99.90;;;;;;6240461;23;20031;-88
2022/06/23 00:50:32;;;;;;;11.35;8.02;;;18.90;99.90;;;;;;6241256;23;20058;-88
2022/06/23 00:53:07;;;;;;;13.68;8.85;;;18.90;99.90;;;;;;6240358;23;20083;-88
2022/06/23 00:56:08;;;;;;;14.45;9.95;;;18.80;99.90;;;;;;6240285;23;20016;-88
2022/06/23 00:58:47;;;;;;;8.82;7.90;;;18.80;99.90;;;;;;6240538;23;20409;-89
2022/06/23 01:01:38;;;;;;;9.60;8.63;;;18.80;99.90;;;;;;6242993;22;20039;-87
2022/06/23 01:04:49;;;;;;;11.50;9.00;;;18.80;99.90;;;;;;6242439;23;19996;-88
2022/06/23 01:07:54;;;;;;;10.90;8.23;;;18.80;99.90;;;;;;6238621;23;20058;-89
2022/06/23 01:10:43;;;;;;;9.20;8.13;;;18.80;99.90;;;;;;6242288;23;20030;-87
2022/06/23 01:13:40;;;;;;;10.15;8.57;;;18.70;99.90;;;;;;6242416;23;20087;-87
2022/06/23 01:16:12;;;;;;;14.73;9.17;;;18.70;99.90;;;;;;6242534;23;20726;-88
2022/06/23 01:18:49;;;;;;;9.35;8.35;;;18.70;99.90;;;;;;6242589;23;20008;-88
2022/06/23 01:21:18;;;;;;;10.30;9.18;;;18.60;99.90;;;;;;6243454;23;20016;-87
2022/06/23 01:23:52;;;;;;;11.10;8.32;;;18.60;99.90;;;;;;6243193;23;20004;-88
2022/06/23 01:26:30;;;;;;;9.98;9.02;;;18.60;99.90;;;;;;6242320;23;20016;-88
2022/06/23 01:29:32;;;;;;;10.43;9.07;;;18.60;99.90;;;;;;6242349;23;20433;-88
2022/06/23 01:32:18;;;;;;;12.45;9.27;;;18.50;99.90;;;;;;6267630;22;20055;-87
2022/06/23 01:34:46;;;;;;;15.95;8.82;;;18.50;99.90;;;;;;6242980;23;20072;-88
2022/06/23 01:37:47;;;;;;;16.65;10.43;;;18.60;99.90;;;;;;6217831;23;20004;-88
2022/06/23 01:40:41;;;;;;;12.45;10.90;;;18.60;99.90;;;;;;6112594;23;20089;-88
2022/06/23 01:43:14;;;;;;;14.23;10.40;;;18.60;99.90;;;;;;6216989;23;20288;-88
2022/06/23 01:45:45;;;;;;;16.00;10.75;;;18.60;99.90;;;;;;6216881;23;20058;-88
2022/06/23 01:48:14;;;;;;;30.45;12.32;;;18.70;99.90;;;;;;6216800;23;20004;-88
2022/06/23 01:50:50;;;;;;;38.53;10.68;;;18.70;99.90;;;;;;6243619;23;20000;-88
2022/06/23 01:53:16;;;;;;;28.60;10.82;;;18.70;99.90;;;;;;6217790;23;20004;-88
2022/06/23 01:55:54;;;;;;;14.65;10.18;;;18.70;99.90;;;;;;6216554;23;20141;-87
2022/06/23 01:58:22;;;;;;;48.35;11.10;;;18.70;99.90;;;;;;6216672;23;20027;-88
2022/06/23 02:00:53;;;;;;;16.10;10.48;;;18.70;99.90;;;;;;6216929;23;20064;-87
2022/06/23 02:03:18;;;;;;;19.48;10.80;;;18.80;99.90;;;;;;6243571;23;20007;-88
2022/06/23 02:05:56;;;;;;;17.73;10.38;;;18.80;99.90;;;;;;6217559;23;20024;-88
2022/06/23 02:08:42;;;;;;;19.88;11.98;;;18.80;99.90;;;;;;6216689;23;20336;-88
2022/06/23 02:11:11;;;;;;;18.30;10.85;;;18.80;99.90;;;;;;6217203;23;20664;-88
2022/06/23 02:13:37;;;;;;;21.10;12.38;;;18.70;99.90;;;;;;6216164;23;20432;-88
2022/06/23 02:16:11;;;;;;;16.40;13.55;;;18.80;99.90;;;;;;6216635;23;20089;-89
2022/06/23 02:19:03;;;;;;;13.60;12.00;;;18.80;99.90;;;;;;6216677;23;20480;-88
2022/06/23 02:21:43;;;;;;;17.67;11.25;;;18.70;99.90;;;;;;6216460;23;20087;-88
2022/06/23 02:24:29;;;;;;;13.90;12.20;;;18.70;99.90;;;;;;6216706;23;20169;-88
2022/06/23 02:27:11;;;;;;;17.00;11.30;;;18.70;99.90;;;;;;6243484;23;19996;-89
2022/06/23 02:29:43;;;;;;;15.00;10.65;;;18.70;99.90;;;;;;6243185;23;20030;-88
2022/06/23 02:32:44;;;;;;;15.75;10.73;;;18.60;99.90;;;;;;6216693;23;20311;-88
2022/06/23 02:35:24;;;;;;;19.60;10.95;;;18.60;99.90;;;;;;6216670;23;20243;-90
2022/06/23 02:37:56;;;;;;;19.77;9.95;;;18.50;99.90;;;;;;6243465;23;20001;-88
2022/06/23 02:40:50;;;;;;;12.48;9.43;;;18.60;99.90;;;;;;6216737;23;20090;-88
2022/06/23 02:43:33;;;;;;;11.93;8.45;;;18.60;99.90;;;;;;6217291;23;20070;-87
2022/06/23 02:46:14;;;;;;;10.02;8.55;;;18.50;99.90;;;;;;6216484;23;20070;-88
2022/06/23 02:49:01;;;;;;;12.63;9.05;;;18.30;99.90;;;;;;6216519;23;20238;-88
2022/06/23 02:51:48;;;;;;;16.27;8.07;;;18.20;99.90;;;;;;6216516;23;20004;-89
2022/06/23 02:54:26;;;;;;;13.88;8.13;;;18.30;99.90;;;;;;6216429;23;20598;-89
2022/06/23 02:57:09;;;;;;;13.15;8.68;;;18.30;99.90;;;;;;6216805;23;20000;-89
2022/06/23 02:59:53;;;;;;;9.68;7.65;;;18.30;99.90;;;;;;6216538;23;20011;-88
2022/06/23 03:02:37;;;;;;;8.27;7.40;;;18.30;99.90;;;;;;6217267;23;20432;-88
2022/06/23 03:05:46;;;;;;;12.70;8.15;;;18.30;99.90;;;;;;6216166;23;20329;-88
2022/06/23 03:08:41;;;;;;;12.93;8.50;;;18.30;99.90;;;;;;6186914;23;20087;-88
2022/06/23 03:11:17;;;;;;;11.15;7.53;;;18.30;99.90;;;;;;6204338;23;20004;-89
2022/06/23 03:13:49;;;;;;;10.73;7.63;;;18.30;99.90;;;;;;6216261;23;20475;-88
2022/06/23 03:16:22;;;;;;;8.68;7.60;;;18.30;99.90;;;;;;6243170;23;20042;-89
2022/06/23 03:18:58;;;;;;;9.73;7.35;;;18.30;99.90;;;;;;6217235;23;20332;-89
2022/06/23 03:21:37;;;;;;;8.25;6.57;;;18.20;99.90;;;;;;6216082;23;20005;-87
2022/06/23 03:24:25;;;;;;;12.43;7.03;;;18.30;99.90;;;;;;6215951;23;20008;-88
2022/06/23 03:27:18;;;;;;;7.57;6.78;;;18.20;99.90;;;;;;6216846;23;20340;-88
2022/06/23 03:29:53;;;;;;;9.70;6.90;;;18.20;99.90;;;;;;6204543;23;20008;-88
2022/06/23 03:32:42;;;;;;;9.77;6.55;;;18.20;99.90;;;;;;6217180;23;20001;-88
2022/06/23 03:35:22;;;;;;;12.13;7.25;;;18.30;99.90;;;;;;6228823;23;20024;-88
2022/06/23 03:37:54;;;;;;;7.95;6.72;;;18.30;99.90;;;;;;6242057;23;20344;-88
2022/06/23 03:43:47;;;;;;;13.13;7.50;;;18.30;99.90;;;;;;6242609;23;20026;-88
2022/06/23 03:46:40;;;;;;;16.35;8.40;;;18.40;99.90;;;;;;6191402;23;20253;-88
2022/06/23 03:49:33;;;;;;;14.15;9.07;;;18.40;99.90;;;;;;6241680;23;20004;-87
2022/06/23 03:52:02;;;;;;;19.83;8.88;;;18.40;99.90;;;;;;6240928;23;20403;-89
2022/06/23 03:54:34;;;;;;;15.73;9.13;;;18.40;99.90;;;;;;6241148;23;20012;-90
2022/06/23 03:57:12;;;;;;;23.73;10.30;;;18.40;99.90;;;;;;6241879;22;19996;-87
2022/06/23 03:59:47;;;;;;;21.50;10.40;;;18.40;99.90;;;;;;6240964;23;20004;-86
2022/06/23 04:02:15;;;;;;;17.65;9.90;;;18.40;99.90;;;;;;6241841;23;20000;-86
2022/06/23 04:05:12;;;;;;;21.60;10.13;;;18.40;99.90;;;;;;6240352;23;20004;-86
2022/06/23 04:08:00;;;;;;;19.43;10.30;;;18.50;99.90;;;;;;6240200;23;20023;-87
2022/06/23 04:10:33;;;;;;;17.92;10.27;;;18.50;99.90;;;;;;6241777;22;20035;-86
2022/06/23 04:13:06;;;;;;;18.02;10.30;;;18.40;99.90;;;;;;6240191;23;20011;-86
2022/06/23 04:15:37;;;;;;;13.65;10.10;;;18.40;99.90;;;;;;6240535;23;20095;-87
2022/06/23 04:18:27;;;;;;;16.00;10.55;;;18.40;99.90;;;;;;6238508;22;20004;-87
2022/06/23 04:21:09;;;;;;;12.70;10.40;;;18.50;99.90;;;;;;6241355;22;20000;-87
2022/06/23 04:23:49;;;;;;;20.50;11.02;;;18.40;99.90;;;;;;6239319;23;20004;-87
2022/06/23 04:26:19;;;;;;;18.17;11.75;;;18.40;99.90;;;;;;6240005;23;20008;-87
2022/06/23 04:28:52;;;;;;;16.30;10.85;;;18.40;99.90;;;;;;6239874;23;20101;-87
2022/06/23 04:31:30;;;;;;;16.30;12.02;;;18.40;99.90;;;;;;6265894;22;20000;-86
2022/06/23 04:33:57;;;;;;;;;;;18.40;99.90;;;;;;6240186;22;20341;-87
2022/06/23 04:36:27;;;;;;;23.08;11.27;;;18.40;99.90;;;;;;6215157;23;19939;-88
2022/06/23 04:39:00;;;;;;;25.70;11.48;;;18.40;99.90;;;;;;6215168;23;20371;-88
2022/06/23 04:41:34;;;;;;;15.40;12.10;;;18.40;99.90;;;;;;6215849;23;20340;-87
2022/06/23 04:44:12;;;;;;;13.98;9.98;;;18.40;99.90;;;;;;6242070;23;20441;-87
2022/06/23 04:46:41;;;;;;;16.80;10.30;;;18.40;99.90;;;;;;6215358;23;20352;-88
2022/06/23 04:49:20;;;;;;;15.77;9.82;;;18.40;99.90;;;;;;6241600;23;20023;-87
2022/06/23 04:51:55;;;;;;;17.90;10.13;;;18.40;99.90;;;;;;6214726;23;20008;-87
2022/06/23 04:54:32;;;;;;;16.63;10.05;;;18.40;99.90;;;;;;6216116;23;20444;-88
2022/06/23 04:57:13;;;;;;;14.27;9.27;;;18.40;99.90;;;;;;6215552;23;20004;-87
2022/06/23 04:59:40;;;;;;;16.00;9.30;;;18.40;99.90;;;;;;6215526;23;20031;-87
2022/06/23 05:02:37;;;;;;;15.43;9.27;;;18.50;99.90;;;;;;6215616;23;20008;-88
2022/06/23 05:05:17;;;;;;;12.07;9.88;;;18.40;99.90;;;;;;6242284;23;20004;-89
2022/06/23 05:24:59;;;;;;;14.93;9.07;;;18.60;99.90;;;;;;5068429;28;20379;-90
2022/06/23 05:27:33;;;;;;;13.48;9.32;;;18.60;99.90;;;;;;5071851;28;20031;-94
2022/06/23 05:30:17;;;;;;;15.77;9.20;;;18.50;99.90;;;;;;5075771;28;20017;-88
2022/06/23 05:32:50;;;;;;;12.75;9.05;;;18.50;99.90;;;;;;5069190;28;20094;-88
2022/06/23 05:35:19;;;;;;;12.52;8.80;;;18.60;99.90;;;;;;5066894;28;20021;-94
2022/06/23 05:38:05;;;;;;;16.70;9.45;;;18.60;99.90;;;;;;5067913;28;20029;-88
2022/06/23 05:40:40;;;;;;;12.20;8.77;;;18.70;99.90;;;;;;5066607;28;20028;-88
2022/06/23 05:43:11;;;;;;;13.75;8.52;;;18.70;99.90;;;;;;5068392;28;20036;-88
2022/06/23 05:45:49;;;;;;;16.98;9.88;;;18.80;99.90;;;;;;5068001;28;20024;-89
2022/06/23 05:48:18;;;;;;;;;;;18.90;99.90;;;;;;5067817;28;20025;-88
2022/06/23 05:50:52;;;;;;;17.17;9.70;;;18.90;99.90;;;;;;5067583;28;20375;-95
2022/06/23 05:53:31;;;;;;;14.43;10.13;;;19.00;99.90;;;;;;5066152;28;20024;-89
2022/06/23 05:56:11;;;;;;;19.10;9.85;;;19.00;99.90;;;;;;5068262;28;20029;-94
2022/06/23 05:58:46;;;;;;;15.75;10.27;;;19.00;99.90;;;;;;5067347;28;20048;-88
2022/06/23 06:01:44;;;;;;;15.75;10.23;;;19.10;99.90;;;;;;5066946;28;20029;-92
2022/06/23 06:04:26;;;;;;;15.73;9.75;;;19.10;99.90;;;;;;5061841;28;20045;-94
2022/06/23 06:06:52;;;;;;;17.73;10.95;;;19.10;99.90;;;;;;5067484;28;20029;-94
2022/06/23 06:09:36;;;;;;;13.38;9.85;;;19.20;99.90;;;;;;5066229;28;20021;-94
2022/06/23 06:12:08;;;;;;;14.18;9.60;;;19.30;99.90;;;;;;5066958;28;20032;-91
2022/06/23 06:14:38;;;;;;;14.68;10.70;;;19.30;99.90;;;;;;5065936;28;20043;-88
2022/06/23 06:17:05;;;;;;;17.73;10.13;;;19.30;99.90;;;;;;5066206;28;20021;-94
2022/06/23 06:19:33;;;;;;;17.08;10.55;;;19.30;99.90;;;;;;5066185;28;20085;-88
2022/06/23 06:22:12;;;;;;;19.55;9.95;;;19.30;99.90;;;;;;5066081;28;20025;-93
2022/06/23 06:24:45;;;;;;;22.38;11.27;;;19.30;99.90;;;;;;5067093;28;20051;-94
2022/06/23 06:27:12;;;;;;;15.02;9.95;;;19.30;99.90;;;;;;5070447;28;20481;-94
2022/06/23 06:29:42;;;;;;;16.48;10.15;;;19.30;99.90;;;;;;5068945;28;20048;-92
2022/06/23 06:32:26;;;;;;;16.42;10.25;;;19.30;99.90;;;;;;5065632;28;20066;-88
2022/06/23 06:35:14;;;;;;;14.48;9.45;;;19.30;99.90;;;;;;5058450;28;20194;-94
2022/06/23 06:37:48;;;;;;;18.58;10.00;;;19.30;99.90;;;;;;5051870;28;20108;-94
2022/06/23 06:40:14;;;;;;;22.10;11.07;;;19.40;99.90;;;;;;5056333;28;20036;-94
2022/06/23 06:42:45;;;;;;;19.83;10.95;;;19.30;99.90;;;;;;5055541;28;20028;-94
2022/06/23 06:45:14;;;;;;;15.10;11.60;;;19.40;99.90;;;;;;5052394;28;20029;-94
2022/06/23 06:47:42;;;;;;;16.13;10.60;;;19.40;99.90;;;;;;5058478;28;20021;-95
2022/06/23 06:50:36;;;;;;;17.30;10.90;;;19.30;99.90;;;;;;5051986;28;20128;-90
2022/06/23 06:53:11;;;;;;;15.70;10.57;;;19.40;99.90;;;;;;5054058;28;20025;-90
2022/06/23 06:55:43;;;;;;;16.83;10.68;;;19.40;99.90;;;;;;5058830;28;20032;-89
2022/06/23 06:58:12;;;;;;;17.92;10.95;;;19.50;99.90;;;;;;5063399;28;20054;-91
2022/06/23 07:00:52;;;;;;;21.35;10.00;;;19.50;99.90;;;;;;5064374;28;20027;-89
2022/06/23 07:03:23;;;;;;;15.05;9.40;;;19.40;99.90;;;;;;5062472;28;20041;-88
2022/06/23 07:06:06;;;;;;;12.77;10.13;;;19.50;99.90;;;;;;5067405;28;20484;-93
2022/06/23 07:08:39;;;;;;;11.65;9.70;;;19.40;99.90;;;;;;5048689;28;20113;-88
2022/06/23 07:11:21;;;;;;;14.55;9.93;;;19.50;99.90;;;;;;5064179;28;20060;-92
2022/06/23 07:14:08;;;;;;;10.95;9.38;;;19.60;99.90;;;;;;5059668;28;20032;-89
2022/06/23 07:16:51;;;;;;;12.68;9.30;;;19.70;99.90;;;;;;5064967;28;20029;-89
2022/06/23 07:19:22;;;;;;;12.88;9.40;;;19.80;99.90;;;;;;5057476;28;20079;-95
2022/06/23 07:22:04;;;;;;;10.32;9.02;;;19.70;99.90;;;;;;5056217;28;20107;-94
2022/06/23 07:25:04;;;;;;;13.07;9.65;;;19.80;99.90;;;;;;5057818;28;20041;-88
2022/06/23 07:27:42;;;;;;;17.17;9.15;;;19.80;99.90;;;;;;5048199;28;20037;-89
2022/06/23 07:30:37;;;;;;;12.23;9.68;;;19.90;99.90;;;;;;5051699;28;20036;-88
2022/06/23 07:33:15;;;;;;;14.32;9.60;;;20.00;99.90;;;;;;5052497;28;20028;-93
2022/06/23 07:35:52;;;;;;;13.57;9.43;;;20.10;99.90;;;;;;5050654;28;20431;-89
2022/06/23 07:38:34;;;;;;;14.63;9.07;;;20.10;99.90;;;;;;5051818;28;20029;-89
2022/06/23 07:41:07;;;;;;;10.63;7.88;;;20.20;99.90;;;;;;5052382;28;20025;-88
2022/06/23 07:44:03;;;;;;;12.32;7.85;;;20.20;99.90;;;;;;5055419;28;20049;-93
2022/06/23 07:46:30;;;;;;;11.77;6.75;;;20.10;99.90;;;;;;5051497;28;20060;-92
2022/06/23 07:48:56;;;;;;;10.40;7.53;;;20.20;99.90;;;;;;5053276;28;20021;-93
2022/06/23 07:51:24;;;;;;;9.65;6.82;;;20.20;99.90;;;;;;5052003;28;20061;-91
2022/06/23 07:53:52;;;;;;;10.47;6.10;;;20.20;99.90;;;;;;5051686;28;20028;-87
2022/06/23 07:56:22;;;;;;;11.15;5.35;;;20.20;99.90;;;;;;5050348;28;20472;-94
2022/06/23 07:58:51;;;;;;;8.00;5.20;;;20.20;99.90;;;;;;5051287;28;20053;-95
2022/06/23 08:01:23;;;;;;;5.85;4.63;;;20.20;99.90;;;;;;5051316;28;20107;-90
2022/06/23 08:04:15;;;;;;;6.60;4.80;;;20.20;99.90;;;;;;5050984;28;20106;-93
2022/06/23 08:06:42;;;;;;;6.90;4.97;;;20.30;99.90;;;;;;5051570;28;20028;-94
2022/06/23 08:09:17;;;;;;;8.68;4.57;;;20.30;99.90;;;;;;5051605;28;20056;-88
2022/06/23 08:14:44;;;;;;;5.78;4.15;;;20.40;99.90;;;;;;5051649;28;20090;-93
2022/06/23 08:17:15;;;;;;;7.13;3.92;;;20.60;99.90;;;;;;5052951;28;20107;-94
2022/06/23 08:19:45;;;;;;;5.53;3.67;;;20.60;99.90;;;;;;5051192;28;20025;-94
2022/06/23 08:22:15;;;;;;;4.68;3.42;;;20.60;99.90;;;;;;5050461;28;20033;-88
2022/06/23 08:24:45;;;;;;;9.18;3.90;;;20.60;99.90;;;;;;5051788;28;20064;-88
2022/06/23 08:27:18;;;;;;;5.60;3.83;;;20.50;99.90;;;;;;5050264;28;20048;-88
2022/06/23 08:30:16;;;;;;;7.60;3.70;;;20.60;99.90;;;;;;5049186;28;20017;-91
2022/06/23 08:32:46;;;;;;;7.18;4.10;;;20.70;99.90;;;;;;5046297;28;20036;-93
2022/06/23 08:35:30;;;;;;;5.97;4.10;;;20.70;99.90;;;;;;5051742;28;20527;-93
2022/06/23 08:38:00;;;;;;;7.07;4.10;;;20.60;99.90;;;;;;5049833;28;20158;-91
2022/06/23 08:40:48;;;;;;;9.63;4.68;;;20.60;99.90;;;;;;5049469;28;20500;-93
2022/06/23 08:43:19;;;;;;;;;;;20.50;99.90;;;;;;5051195;28;20050;-92
2022/06/23 08:45:57;;;;;;;12.43;4.95;;;20.50;99.90;;;;;;5050999;28;19999;-94
2022/06/23 08:48:40;;;;;;;6.80;4.88;;;20.40;99.90;;;;;;5049156;28;20033;-95
2022/06/23 08:51:31;;;;;;;11.15;5.25;;;20.50;99.90;;;;;;5053472;28;20096;-95
2022/06/23 08:54:01;;;;;;;10.85;5.60;;;20.50;99.90;;;;;;5051690;28;20037;-88
2022/06/23 08:56:36;;;;;;;12.50;5.95;;;20.40;99.90;;;;;;5054831;28;20021;-90
2022/06/23 08:59:27;;;;;;;9.27;5.82;;;20.30;99.90;;;;;;5049804;28;20098;-94
2022/06/23 09:02:14;;;;;;;9.25;5.80;;;20.40;99.90;;;;;;5048454;28;20029;-87
2022/06/23 09:04:56;;;;;;;9.07;6.00;;;20.50;99.90;;;;;;5051559;28;20037;-87
2022/06/23 09:07:49;;;;;;;11.82;6.35;;;20.40;99.90;;;;;;5055264;28;20028;-87
2022/06/23 09:11:06;;;;;;;8.75;6.30;;;20.50;99.90;;;;;;5047364;28;20076;-87
2022/06/23 09:13:47;;;;;;;11.85;5.90;;;20.50;99.90;;;;;;5039690;28;20041;-87
2022/06/23 09:16:16;;;;;;;13.15;5.93;;;20.50;99.90;;;;;;5048107;28;20042;-87
2022/06/23 09:19:15;;;;;;;7.53;5.45;;;20.50;99.90;;;;;;5049329;28;20025;-87
2022/06/23 09:21:49;;;;;;;9.98;5.22;;;20.40;99.90;;;;;;5049943;28;20047;-88
2022/06/23 09:24:28;;;;;;;8.40;4.60;;;20.50;99.90;;;;;;5047762;28;20045;-88
2022/06/23 09:27:25;;;;;;;11.40;5.20;;;20.50;99.90;;;;;;5049353;28;20031;-88
2022/06/23 09:29:59;;;;;;;9.13;4.97;;;20.60;99.90;;;;;;5049751;28;20047;-87
2022/06/23 09:32:46;;;;;;;12.75;5.30;;;20.70;99.90;;;;;;5049268;28;20029;-88
2022/06/23 09:35:56;;;;;;;15.85;5.45;;;20.70;99.90;;;;;;5049024;28;20055;-87
2022/06/23 09:38:30;;;;;;;7.47;4.57;;;20.70;99.90;;;;;;5027077;28;20025;-87
2022/06/23 09:41:23;;;;;;;9.15;4.78;;;20.80;99.90;;;;;;5010427;28;20033;-87
2022/06/23 09:44:18;;;;;;;8.52;4.38;;;20.90;99.90;;;;;;5043598;28;20045;-87
2022/06/23 09:46:59;;;;;;;10.90;4.70;;;21.20;99.90;;;;;;5048961;28;20025;-87
2022/06/23 09:49:46;;;;;;;8.30;5.25;;;21.20;99.90;;;;;;5047414;28;20029;-94
2022/06/23 09:52:29;;;;;;;13.57;4.90;;;21.30;99.90;;;;;;5048183;28;20021;-94
2022/06/23 09:55:01;;;;;;;9.63;4.43;;;21.30;99.90;;;;;;5048779;28;20033;-87
2022/06/23 09:57:38;;;;;;;11.60;4.75;;;21.40;99.90;;;;;;5047522;28;20418;-87
2022/06/23 10:00:06;;;;;;;8.77;4.20;;;21.60;99.90;;;;;;5048743;28;20476;-87
2022/06/23 10:02:51;;;;;;;10.05;4.40;;;21.50;99.90;;;;;;5048924;28;20086;-86
2022/06/23 10:05:20;;;;;;;8.05;4.32;;;21.50;99.90;;;;;;5048696;28;20044;-87
2022/06/23 10:08:10;;;;;;;8.98;4.25;;;21.40;99.90;;;;;;5048706;28;20548;-89
2022/06/23 10:10:54;;;;;;;7.78;4.65;;;21.40;99.90;;;;;;5051082;28;20033;-94
2022/06/23 10:13:46;;;;;;;7.63;4.05;;;21.40;99.90;;;;;;5052634;28;20025;-87
2022/06/23 10:16:41;;;;;;;7.72;3.90;;;21.40;99.90;;;;;;5053602;28;20100;-94
2022/06/23 10:19:26;;;;;;;9.35;4.25;;;21.50;99.90;;;;;;5055065;28;20024;-92
2022/06/23 10:22:06;;;;;;;8.60;4.40;;;21.70;99.90;;;;;;5053106;28;20056;-94
2022/06/23 10:24:56;;;;;;;6.43;4.00;;;21.90;99.90;;;;;;5053150;28;20033;-93
2022/06/23 10:27:54;;;;;;;7.88;3.80;;;22.00;99.90;;;;;;5051757;28;20036;-94
2022/06/23 10:30:20;;;;;;;4.85;3.50;;;22.00;99.90;;;;;;5053536;28;20511;-94
2022/06/23 10:33:13;;;;;;;9.35;3.88;;;21.90;99.90;;;;;;5052576;28;20033;-89
2022/06/23 10:36:15;;;;;;;7.93;3.42;;;22.10;99.90;;;;;;5052570;28;20029;-94
2022/06/23 10:39:07;;;;;;;6.50;3.40;;;22.40;99.90;;;;;;5053852;28;20017;-95
2022/06/23 10:42:08;;;;;;;9.77;3.88;;;22.40;99.90;;;;;;5052920;28;20035;-93
2022/06/23 10:44:57;;;;;;;6.18;3.50;;;22.40;99.90;;;;;;5052724;28;20029;-87
2022/06/23 10:47:33;;;;;;;6.95;3.50;;;22.30;99.90;;;;;;5052098;28;20033;-90
2022/06/23 10:50:37;;;;;;;5.65;3.38;;;22.30;99.90;;;;;;5050332;28;20416;-87
2022/06/23 10:53:17;;;;;;;7.53;3.38;;;22.40;99.90;;;;;;5040332;28;20055;-93
2022/06/23 10:55:58;;;;;;;4.90;3.17;;;22.70;99.90;;;;;;5055160;28;20103;-96
2022/06/23 10:58:43;;;;;;;5.30;2.95;;;22.90;99.90;;;;;;5058182;28;20039;-95
2022/06/23 11:01:24;;;;;;;4.68;2.65;;;22.70;99.90;;;;;;5055436;28;20029;-94
2022/06/23 11:04:31;;;;;;;6.30;3.30;;;22.60;99.90;;;;;;5063483;28;20028;-94
2022/06/23 11:06:57;;;;;;;;;;;22.40;99.90;;;;;;5050241;28;20497;-94
2022/06/23 11:09:28;;;;;;;6.13;2.90;;;22.30;99.90;;;;;;5057300;28;19905;-94
2022/06/23 11:12:03;;;;;;;8.23;3.00;;;22.30;99.90;;;;;;5061353;28;20036;-94
2022/06/23 11:14:57;;;;;;;7.68;2.75;;;22.10;99.90;;;;;;5066350;28;20017;-87
2022/06/23 11:17:44;;;;;;;4.50;2.90;;;22.10;99.90;;;;;;5056330;28;20032;-94
2022/06/23 11:20:47;;;;;;;5.10;2.58;;;22.10;99.90;;;;;;5052272;28;20059;-88
2022/06/23 11:23:23;;;;;;;6.38;2.40;;;22.00;99.90;;;;;;5055546;28;20104;-92
2022/06/23 11:26:00;;;;;;;4.72;2.53;;;21.90;99.90;;;;;;5060848;28;20032;-95
2022/06/23 11:28:45;;;;;;;5.43;2.95;;;21.70;99.90;;;;;;5053983;28;20029;-92
2022/06/23 11:31:26;;;;;;;7.25;3.03;;;21.70;99.90;;;;;;5053902;28;20488;-91
2022/06/23 11:34:14;;;;;;;8.98;3.13;;;21.80;99.90;;;;;;5052158;28;20059;-86
2022/06/23 11:37:01;;;;;;;4.97;3.05;;;22.00;99.90;;;;;;5051033;28;20025;-94
2022/06/23 11:39:50;;;;;;;6.82;2.78;;;22.20;99.90;;;;;;5063360;28;20024;-92
2022/06/23 11:42:38;;;;;;;7.63;3.08;;;22.50;99.90;;;;;;5054095;28;20086;-95
2022/06/23 11:45:24;;;;;;;7.05;2.67;;;22.60;99.90;;;;;;5058152;28;20029;-94
2022/06/23 11:48:18;;;;;;;4.72;2.50;;;22.70;99.90;;;;;;5056496;28;20089;-87
2022/06/23 11:51:03;;;;;;;6.82;2.80;;;22.60;99.90;;;;;;5074763;28;20012;-85
2022/06/23 11:53:49;;;;;;;4.55;2.30;;;22.70;99.90;;;;;;5071758;28;20073;-87
2022/06/23 11:56:44;;;;;;;9.30;2.45;;;22.80;99.90;;;;;;5067384;28;20080;-92
2022/06/23 11:59:20;;;;;;;8.23;2.80;;;22.90;99.90;;;;;;5064814;28;20477;-86
2022/06/23 12:01:45;;;;;;;4.32;2.20;;;23.00;99.90;;;;;;5058606;28;20032;-95
2022/06/23 12:04:17;;;;;;;7.32;2.42;;;23.10;99.90;;;;;;5064514;28;20017;-90
2022/06/23 12:06:43;;;;;;;6.75;2.45;;;23.10;99.90;;;;;;5064286;28;20013;-86
2022/06/23 12:09:30;;;;;;;6.15;2.40;;;23.30;99.90;;;;;;5053262;28;20377;-85
2022/06/23 12:11:57;;;;;;;5.80;2.95;;;23.30;99.90;;;;;;5051665;28;20102;-85
2022/06/23 12:14:24;;;;;;;3.67;2.17;;;23.20;99.90;;;;;;5053387;28;20039;-85
2022/06/23 12:17:11;;;;;;;9.23;2.55;;;23.00;99.90;;;;;;5053663;28;20275;-86
2022/06/23 12:20:15;;;;;;;2.83;2.30;;;23.10;99.90;;;;;;5051754;28;20032;-85
2022/06/23 12:23:08;;;;;;;6.00;2.20;;;23.40;99.90;;;;;;5051148;28;20092;-86
2022/06/23 12:25:35;;;;;;;4.57;2.47;;;23.30;99.90;;;;;;5051809;28;20037;-86
2022/06/23 12:28:49;;;;;;;3.30;2.47;;;23.40;99.90;;;;;;5054571;28;20017;-85
2022/06/23 12:31:49;;;;;;;4.90;2.70;;;23.50;99.90;;;;;;5042483;28;20090;-94
2022/06/23 12:34:38;;;;;;;5.97;2.55;;;23.30;99.90;;;;;;5049359;28;20116;-85
2022/06/23 12:37:32;;;;;;;6.53;2.40;;;23.10;99.90;;;;;;5055738;28;20025;-86
2022/06/23 12:40:25;;;;;;;6.13;2.30;;;23.30;99.90;;;;;;5059020;28;20090;-85
2022/06/23 12:43:20;;;;;;;6.72;2.20;;;23.30;99.90;;;;;;5060264;28;20031;-88
2022/06/23 12:46:12;;;;;;;5.30;2.10;;;23.40;99.90;;;;;;5062113;28;20044;-87
2022/06/23 12:49:01;;;;;;;6.85;2.40;;;23.40;99.90;;;;;;5052089;28;20021;-86
2022/06/23 12:51:29;;;;;;;4.25;2.03;;;23.60;99.90;;;;;;5050741;28;20102;-86
2022/06/23 12:53:55;;;;;;;6.57;2.03;;;23.70;99.90;;;;;;5052754;28;20021;-85
2022/06/23 12:56:26;;;;;;;5.75;2.20;;;23.60;99.90;;;;;;5055471;28;20174;-86
2022/06/23 12:59:32;;;;;;;2.90;2.13;;;23.50;99.90;;;;;;5054508;28;20021;-86
2022/06/23 13:02:04;;;;;;;2.70;1.98;;;23.40;99.90;;;;;;5051247;28;20516;-85
2022/06/23 13:04:45;;;;;;;3.83;2.08;;;23.50;99.90;;;;;;5059190;28;20020;-85
2022/06/23 13:07:25;;;;;;;5.13;2.15;;;23.50;99.90;;;;;;5055157;28;20074;-86
2022/06/23 13:10:00;;;;;;;5.45;2.13;;;23.70;99.90;;;;;;5050121;28;20481;-92
2022/06/23 13:12:36;;;;;;;5.97;2.10;;;23.70;99.90;;;;;;5055019;28;20013;-85
2022/06/23 13:15:16;;;;;;;3.75;2.05;;;23.80;99.90;;;;;;5054636;28;20025;-85
2022/06/23 13:17:46;;;;;;;4.47;1.77;;;24.00;99.90;;;;;;5049254;28;20079;-85
2022/06/23 13:20:32;;;;;;;4.95;1.73;;;24.10;99.90;;;;;;5056398;28;20021;-87
2022/06/23 13:23:13;;;;;;;3.20;1.80;;;24.10;99.90;;;;;;5056334;28;20033;-86
2022/06/23 13:25:55;;;;;;;6.03;1.70;;;24.10;99.90;;;;;;5056973;28;20096;-86
2022/06/23 13:28:30;;;;;;;3.40;1.80;;;24.00;99.90;;;;;;5058746;28;20021;-85
2022/06/23 13:31:02;;;;;;;4.63;2.10;;;24.10;99.90;;;;;;5049705;28;20040;-86
2022/06/23 13:33:38;;;;;;;2.30;1.63;;;24.20;99.90;;;;;;5054466;28;20393;-85
2022/06/23 13:36:44;;;;;;;7.20;1.80;;;24.40;99.90;;;;;;5057983;28;20037;-95
2022/06/23 13:39:22;;;;;;;6.53;1.85;;;24.50;99.90;;;;;;5052421;28;20086;-85
2022/06/23 13:41:50;;;;;;;;;;;24.30;99.90;;;;;;5061476;28;20397;-85
2022/06/23 13:44:40;;;;;;;3.65;1.90;;;24.30;99.90;;;;;;5053516;28;19917;-85
2022/06/23 13:47:14;;;;;;;3.40;2.00;;;24.20;99.90;;;;;;5056265;28;20021;-86
2022/06/23 13:50:07;;;;;;;3.10;1.90;;;24.30;99.90;;;;;;5060888;28;20028;-86
2022/06/23 13:52:37;;;;;;;4.05;1.67;;;24.50;99.90;;;;;;5065595;28;20020;-85
2022/06/23 13:55:35;;;;;;;3.25;1.65;;;24.50;99.90;;;;;;5055948;28;20025;-86
2022/06/23 13:58:19;;;;;;;5.47;1.70;;;24.60;99.90;;;;;;5060957;28;20025;-86
2022/06/23 14:00:57;;;;;;;2.58;1.90;;;24.80;99.90;;;;;;5059215;28;20001;-86
2022/06/23 14:04:00;;;;;;;2.60;1.73;;;24.70;99.90;;;;;;5058556;28;20083;-87
2022/06/23 14:06:29;;;;;;;5.28;2.00;;;24.60;99.90;;;;;;5058191;28;20036;-86
2022/06/23 14:09:15;;;;;;;3.05;1.92;;;24.40;99.90;;;;;;5060203;28;20035;-86
2022/06/23 14:12:06;;;;;;;4.25;1.73;;;24.40;99.90;;;;;;5058015;28;20032;-85